createdAt,value
2022-10-17T00:01:04.602Z,6.80
2022-10-17T00:03:32.651Z,6.80
2022-10-17T00:06:05.087Z,6.80
2022-10-17T00:08:32.802Z,6.80
2022-10-17T00:11:03.974Z,6.70
2022-10-17T00:16:01.236Z,6.70
2022-10-17T00:18:28.764Z,6.70
2022-10-17T00:20:56.506Z,6.70
2022-10-17T00:23:24.421Z,6.70
2022-10-17T00:26:00.337Z,6.70
2022-10-17T00:28:28.178Z,6.70
2022-10-17T00:31:06.199Z,6.70
2022-10-17T00:33:35.548Z,6.70
2022-10-17T00:36:19.119Z,6.70
2022-10-17T00:38:48.734Z,6.80
2022-10-17T00:41:18.980Z,6.80
2022-10-17T00:44:03.347Z,6.80
2022-10-17T00:46:40.166Z,6.80
2022-10-17T00:49:19.300Z,6.80
2022-10-17T00:52:15.048Z,6.80
2022-10-17T00:55:01.004Z,6.70
2022-10-17T00:57:50.040Z,6.70
2022-10-17T01:03:30.491Z,6.80
2022-10-17T01:05:58.357Z,6.70
2022-10-17T01:08:26.648Z,6.70
2022-10-17T01:10:54.270Z,6.70
2022-10-17T01:13:57.592Z,6.70
2022-10-17T01:16:59.518Z,6.70
2022-10-17T01:20:06.034Z,6.70
2022-10-17T01:22:44.367Z,6.70
2022-10-17T01:25:42.888Z,6.70
2022-10-17T01:28:44.258Z,6.50
2022-10-17T01:31:15.892Z,6.50
2022-10-17T01:34:01.929Z,6.50
2022-10-17T01:36:52.304Z,6.50
2022-10-17T01:39:51.396Z,6.50
2022-10-17T01:42:29.005Z,6.60
2022-10-17T01:45:24.974Z,6.50
2022-10-17T01:47:56.602Z,6.60
2022-10-17T01:50:33.304Z,6.60
2022-10-17T01:53:06.879Z,6.70
2022-10-17T01:55:38.367Z,6.80
2022-10-17T01:58:27.598Z,6.80
2022-10-17T02:00:58.725Z,6.90
2022-10-17T02:03:29.039Z,6.90
2022-10-17T02:05:56.707Z,6.90
2022-10-17T02:08:42.317Z,6.90
2022-10-17T02:11:28.721Z,6.90
2022-10-17T02:14:23.058Z,6.80
2022-10-17T02:16:56.861Z,6.70
2022-10-17T02:19:30.569Z,6.70
2022-10-17T02:22:16.758Z,6.70
2022-10-17T02:24:55.091Z,6.80
2022-10-17T02:27:49.783Z,6.80
2022-10-17T02:30:33.597Z,6.80
2022-10-17T02:33:09.552Z,6.90
2022-10-17T02:35:41.309Z,6.90
2022-10-17T02:38:12.463Z,7.00
2022-10-17T02:40:40.956Z,7.00
2022-10-17T02:43:08.807Z,7.00
2022-10-17T02:45:37.955Z,7.10
2022-10-17T02:48:07.537Z,7.10
2022-10-17T02:51:10.504Z,7.20
2022-10-17T02:54:12.827Z,7.20
2022-10-17T02:56:46.816Z,7.20
2022-10-17T02:59:17.943Z,7.20
2022-10-17T03:01:45.699Z,7.20
2022-10-17T03:04:15.476Z,7.20
2022-10-17T03:06:44.656Z,7.30
2022-10-17T03:09:12.528Z,7.40
2022-10-17T03:11:42.037Z,7.40
2022-10-17T03:14:10.086Z,7.40
2022-10-17T03:16:37.822Z,7.40
2022-10-17T03:19:06.040Z,7.50
2022-10-17T03:21:36.612Z,7.50
2022-10-17T03:24:04.958Z,7.50
2022-10-17T03:26:32.561Z,7.60
2022-10-17T03:29:00.162Z,7.60
2022-10-17T03:31:30.001Z,7.50
2022-10-17T03:33:58.587Z,7.60
2022-10-17T03:36:26.244Z,7.70
2022-10-17T03:38:55.250Z,7.70
2022-10-17T03:41:24.203Z,7.80
2022-10-17T03:43:54.516Z,7.80
2022-10-17T03:46:23.049Z,7.80
2022-10-17T03:48:51.177Z,7.60
2022-10-17T03:51:19.042Z,7.70
2022-10-17T03:53:52.377Z,7.60
2022-10-17T03:56:23.339Z,7.60
2022-10-17T03:58:59.783Z,7.60
2022-10-17T04:01:29.437Z,7.70
2022-10-17T04:03:58.188Z,7.70
2022-10-17T04:06:30.069Z,7.80
2022-10-17T04:08:57.983Z,7.90
2022-10-17T04:11:44.209Z,7.90
2022-10-17T04:14:12.357Z,8.00
2022-10-17T04:16:40.855Z,8.00
2022-10-17T04:19:14.764Z,8.10
2022-10-17T04:21:46.240Z,8.10
2022-10-17T04:24:15.850Z,8.10
2022-10-17T04:27:03.948Z,8.10
2022-10-17T04:29:34.127Z,8.10
2022-10-17T04:32:07.612Z,8.00
2022-10-17T04:34:41.523Z,8.00
2022-10-17T04:37:09.988Z,8.00
2022-10-17T04:39:38.183Z,8.00
2022-10-17T04:42:06.176Z,8.00
2022-10-17T04:44:35.597Z,8.10
2022-10-17T04:47:03.487Z,8.10
2022-10-17T04:49:31.753Z,8.10
2022-10-17T04:52:07.459Z,8.10
2022-10-17T04:54:43.864Z,8.10
2022-10-17T04:57:13.990Z,8.10
2022-10-17T04:59:44.868Z,8.00
2022-10-17T05:02:19.314Z,7.80
2022-10-17T05:04:48.152Z,7.90
2022-10-17T05:07:16.841Z,8.00
2022-10-17T05:10:02.995Z,8.00
2022-10-17T05:12:32.681Z,8.00
2022-10-17T05:15:00.475Z,8.00
2022-10-17T05:17:29.631Z,8.10
2022-10-17T05:19:57.676Z,7.60
2022-10-17T05:22:25.598Z,7.40
2022-10-17T05:24:53.341Z,7.70
2022-10-17T05:27:21.281Z,7.80
2022-10-17T05:29:49.172Z,7.80
2022-10-17T05:32:25.801Z,7.90
2022-10-17T05:34:53.585Z,8.00
2022-10-17T05:37:23.814Z,8.10
2022-10-17T05:39:53.739Z,8.10
2022-10-17T05:42:21.576Z,8.00
2022-10-17T05:44:49.376Z,8.20
2022-10-17T05:47:19.739Z,8.20
2022-10-17T05:49:52.106Z,8.20
2022-10-17T05:52:26.632Z,8.20
2022-10-17T05:55:06.881Z,8.30
2022-10-17T05:57:34.677Z,8.40
2022-10-17T06:00:05.648Z,8.30
2022-10-17T06:02:42.399Z,8.30
2022-10-17T06:05:12.574Z,8.30
2022-10-17T06:07:40.718Z,8.20
2022-10-17T06:10:09.925Z,8.30
2022-10-17T06:12:37.760Z,8.30
2022-10-17T06:15:06.001Z,8.40
2022-10-17T06:17:35.789Z,8.50
2022-10-17T06:20:03.679Z,8.60
2022-10-17T06:22:31.916Z,8.80
2022-10-17T06:25:01.597Z,8.30
2022-10-17T06:27:30.258Z,8.10
2022-10-17T06:29:58.087Z,8.40
2022-10-17T06:32:25.906Z,8.60
2022-10-17T06:34:53.835Z,8.80
2022-10-17T06:37:21.599Z,8.90
2022-10-17T06:39:49.304Z,8.80
2022-10-17T06:42:21.373Z,9.00
2022-10-17T06:45:10.345Z,9.10
2022-10-17T06:47:53.523Z,9.10
2022-10-17T06:50:47.267Z,9.30
2022-10-17T06:53:22.376Z,9.60
2022-10-17T06:55:54.577Z,9.80
2022-10-17T06:58:34.703Z,9.90
2022-10-17T07:01:14.652Z,10.10
2022-10-17T07:03:44.098Z,10.20
2022-10-17T07:06:13.449Z,10.50
2022-10-17T07:08:44.701Z,10.30
2022-10-17T07:11:18.885Z,10.40
2022-10-17T07:13:47.637Z,10.90
2022-10-17T07:16:16.641Z,10.10
2022-10-17T07:18:50.943Z,10.90
2022-10-17T07:21:19.594Z,10.80
2022-10-17T07:23:47.748Z,10.70
2022-10-17T07:26:17.301Z,11.10
2022-10-17T07:28:47.615Z,11.90
2022-10-17T07:31:37.041Z,12.20
2022-10-17T07:34:04.988Z,12.60
2022-10-17T07:36:32.863Z,12.90
2022-10-17T07:39:03.665Z,12.00
2022-10-17T07:41:32.712Z,12.60
2022-10-17T07:44:00.785Z,12.10
2022-10-17T07:46:34.908Z,12.90
2022-10-17T07:49:03.019Z,12.70
2022-10-17T07:51:30.993Z,13.50
2022-10-17T07:53:58.616Z,13.80
2022-10-17T07:56:26.343Z,13.80
2022-10-17T07:58:54.336Z,13.80
2022-10-17T08:01:22.083Z,13.70
2022-10-17T08:03:50.481Z,14.40
2022-10-17T08:06:18.686Z,13.40
2022-10-17T08:08:46.608Z,13.60
2022-10-17T08:11:15.461Z,14.00
2022-10-17T08:13:43.406Z,14.30
2022-10-17T08:16:12.681Z,13.40
2022-10-17T08:18:41.977Z,13.70
2022-10-17T08:21:10.772Z,13.70
2022-10-17T08:23:38.583Z,13.50
2022-10-17T08:26:10.934Z,13.80
2022-10-17T08:28:40.743Z,14.30
2022-10-17T08:31:19.054Z,14.00
2022-10-17T08:33:48.133Z,13.90
2022-10-17T08:36:18.814Z,13.70
2022-10-17T08:38:51.655Z,13.50
2022-10-17T08:41:40.265Z,15.80
2022-10-17T08:44:16.963Z,17.70
2022-10-17T08:46:50.828Z,18.60
2022-10-17T08:49:42.259Z,21.10
2022-10-17T08:52:28.430Z,20.40
2022-10-17T08:54:56.203Z,22.90
2022-10-17T08:57:23.957Z,25.10
2022-10-17T08:59:54.039Z,28.60
2022-10-17T09:02:36.780Z,31.20
2022-10-17T09:05:26.603Z,29.00
2022-10-17T09:08:15.684Z,29.80
2022-10-17T09:11:05.338Z,27.00
2022-10-17T09:13:58.905Z,28.00
2022-10-17T09:16:26.616Z,31.20
2022-10-17T09:19:03.603Z,33.30
2022-10-17T09:21:39.909Z,32.80
2022-10-17T09:24:16.177Z,31.00
2022-10-17T09:26:47.303Z,33.90
2022-10-17T09:29:21.631Z,33.80
2022-10-17T09:32:03.863Z,34.30
2022-10-17T09:34:33.155Z,30.20
2022-10-17T09:37:02.777Z,32.30
2022-10-17T09:39:33.419Z,36.80
2022-10-17T09:42:02.462Z,39.40
2022-10-17T09:44:34.126Z,38.00
2022-10-17T09:47:08.207Z,39.10
2022-10-17T09:49:45.817Z,38.70
2022-10-17T09:52:26.311Z,38.40
2022-10-17T09:55:00.624Z,37.90
2022-10-17T09:57:28.525Z,35.00
2022-10-17T10:00:02.026Z,38.10
2022-10-17T10:02:31.758Z,37.40
2022-10-17T10:05:19.417Z,38.80
2022-10-17T10:08:06.042Z,34.80
2022-10-17T10:10:34.384Z,34.30
2022-10-17T10:13:20.612Z,36.40
2022-10-17T10:15:50.586Z,38.60
2022-10-17T10:18:35.619Z,42.80
2022-10-17T10:21:12.998Z,41.40
2022-10-17T10:23:45.548Z,40.60
2022-10-17T10:26:23.009Z,43.10
2022-10-17T10:28:59.232Z,38.70
2022-10-17T10:31:32.572Z,37.60
2022-10-17T10:34:03.334Z,38.70
2022-10-17T10:36:48.631Z,39.70
2022-10-17T10:39:29.181Z,40.70
2022-10-17T10:41:57.095Z,41.10
2022-10-17T10:44:28.741Z,41.70
2022-10-17T10:47:17.988Z,40.70
2022-10-17T10:49:46.213Z,40.40
2022-10-17T10:52:50.998Z,42.20
2022-10-17T10:55:34.555Z,41.50
2022-10-17T10:58:07.606Z,41.90
2022-10-17T11:00:38.598Z,40.40
2022-10-17T11:03:24.294Z,40.20
2022-10-17T11:06:19.779Z,39.50
2022-10-17T11:13:31.413Z,40.20
2022-10-17T11:22:28.947Z,33.60
2022-10-17T11:25:16.184Z,33.40
2022-10-17T11:27:45.492Z,34.20
2022-10-17T11:30:15.565Z,34.50
2022-10-17T11:32:46.701Z,33.30
2022-10-17T11:35:38.494Z,34.70
2022-10-17T11:38:38.900Z,35.60
2022-10-17T11:41:09.349Z,37.30
2022-10-17T11:43:45.690Z,36.80
2022-10-17T11:46:19.254Z,36.80
2022-10-17T11:49:17.394Z,35.90
2022-10-17T11:52:43.986Z,35.60
2022-10-17T11:55:28.357Z,36.10
2022-10-17T11:58:25.025Z,35.80
2022-10-17T12:01:24.517Z,35.00
2022-10-17T12:04:08.589Z,36.20
2022-10-17T12:06:43.293Z,36.00
2022-10-17T12:09:20.250Z,35.60
2022-10-17T12:12:04.863Z,34.50
2022-10-17T12:14:46.965Z,34.00
2022-10-17T12:17:39.884Z,33.50
2022-10-17T12:20:25.932Z,33.30
2022-10-17T12:23:11.750Z,33.90
2022-10-17T12:25:54.980Z,33.80
2022-10-17T12:28:33.672Z,33.10
2022-10-17T12:31:10.451Z,33.10
2022-10-17T12:33:49.645Z,33.10
2022-10-17T12:36:23.825Z,32.50
2022-10-17T12:39:12.265Z,32.90
2022-10-17T12:41:40.258Z,31.60
2022-10-17T12:44:14.263Z,31.50
2022-10-17T12:47:04.297Z,30.60
2022-10-17T12:49:49.691Z,30.90
2022-10-17T12:52:44.154Z,30.60
2022-10-17T12:55:16.057Z,30.40
2022-10-17T12:57:58.949Z,29.50
2022-10-17T13:00:33.089Z,28.40
2022-10-17T13:03:17.096Z,28.50
2022-10-17T13:05:55.901Z,28.30
2022-10-17T13:08:24.818Z,28.60
2022-10-17T13:10:53.940Z,29.00
2022-10-17T13:13:35.829Z,28.90
2022-10-17T13:16:03.727Z,28.80
2022-10-17T13:18:31.886Z,28.50
2022-10-17T13:21:03.407Z,27.30
2022-10-17T13:23:36.792Z,27.20
2022-10-17T13:26:10.614Z,26.20
2022-10-17T13:28:39.646Z,26.20
2022-10-17T13:31:20.536Z,25.30
2022-10-17T13:33:48.331Z,24.20
2022-10-17T13:36:16.471Z,22.90
2022-10-17T13:38:44.805Z,23.80
2022-10-17T13:44:07.880Z,23.40
2022-10-17T13:46:38.483Z,23.50
2022-10-17T13:49:39.280Z,23.20
2022-10-17T13:52:14.958Z,22.80
2022-10-17T13:54:45.874Z,21.80
2022-10-17T13:57:20.529Z,21.60
2022-10-17T13:59:59.643Z,21.10
2022-10-17T14:02:30.383Z,20.60
2022-10-17T14:05:16.830Z,20.50
2022-10-17T14:08:10.873Z,20.60
2022-10-17T14:10:42.947Z,20.30
2022-10-17T14:13:23.933Z,20.10
2022-10-17T14:15:57.028Z,19.90
2022-10-17T14:18:34.857Z,20.00
2022-10-17T14:21:36.910Z,19.30
2022-10-17T14:24:12.384Z,19.20
2022-10-17T14:26:55.291Z,19.00
2022-10-17T14:29:49.970Z,18.40
2022-10-17T14:32:19.094Z,18.20
2022-10-17T14:34:47.582Z,17.80
2022-10-17T14:37:49.282Z,17.60
2022-10-17T14:40:20.551Z,17.60
2022-10-17T14:42:49.948Z,17.50
2022-10-17T14:45:38.816Z,17.40
2022-10-17T14:48:16.945Z,17.00
2022-10-17T14:51:11.998Z,16.90
2022-10-17T14:53:40.372Z,16.80
2022-10-17T14:56:26.379Z,16.90
2022-10-17T14:58:54.789Z,16.70
2022-10-17T15:01:22.894Z,16.60
2022-10-17T15:03:50.560Z,16.60
2022-10-17T15:06:32.294Z,16.40
2022-10-17T15:09:00.441Z,16.30
2022-10-17T15:11:28.503Z,16.20
2022-10-17T15:13:56.748Z,16.00
2022-10-17T15:16:31.736Z,15.80
2022-10-17T15:18:59.480Z,15.60
2022-10-17T15:21:47.284Z,15.50
2022-10-17T15:24:16.126Z,15.30
2022-10-17T15:26:43.822Z,15.20
2022-10-17T15:29:16.836Z,15.00
2022-10-17T15:31:45.658Z,14.90
2022-10-17T15:34:14.022Z,14.70
2022-10-17T15:36:48.324Z,14.60
2022-10-17T15:39:17.926Z,14.60
2022-10-17T15:41:48.260Z,14.50
2022-10-17T15:44:15.900Z,14.40
2022-10-17T15:46:44.180Z,14.10
2022-10-17T15:49:18.289Z,13.90
2022-10-17T15:51:47.201Z,13.80
2022-10-17T15:54:17.409Z,13.80
2022-10-17T15:56:53.117Z,13.60
2022-10-17T15:59:26.180Z,13.50
2022-10-17T16:01:54.699Z,13.30
2022-10-17T16:04:24.341Z,13.10
2022-10-17T16:06:52.350Z,13.10
2022-10-17T16:09:20.078Z,13.00
2022-10-17T16:11:50.215Z,12.90
2022-10-17T16:14:18.375Z,12.80
2022-10-17T16:16:46.164Z,12.80
2022-10-17T16:19:14.451Z,12.70
2022-10-17T16:21:43.054Z,12.60
2022-10-17T16:24:12.636Z,12.50
2022-10-17T16:26:41.071Z,12.40
2022-10-17T16:29:10.793Z,12.50
2022-10-17T16:31:43.350Z,12.30
2022-10-17T16:34:13.713Z,12.20
2022-10-17T16:36:42.250Z,12.10
2022-10-17T16:39:11.018Z,12.00
2022-10-17T16:41:40.409Z,11.90
2022-10-17T16:44:11.899Z,11.80
2022-10-17T16:46:40.061Z,11.80
2022-10-17T16:49:08.632Z,11.70
2022-10-17T16:51:36.485Z,11.60
2022-10-17T16:54:04.885Z,11.60
2022-10-17T16:56:36.508Z,11.50
2022-10-17T16:59:04.753Z,11.40
2022-10-17T17:01:32.489Z,11.40
2022-10-17T17:04:00.587Z,11.50
2022-10-17T17:06:30.015Z,11.40
2022-10-17T17:08:58.291Z,11.20
2022-10-17T17:11:28.167Z,11.10
2022-10-17T17:13:57.897Z,11.10
2022-10-17T17:16:27.448Z,11.00
2022-10-17T17:19:17.429Z,10.90
2022-10-17T17:21:50.373Z,10.90
2022-10-17T17:24:21.186Z,10.80
2022-10-17T17:26:54.453Z,10.80
2022-10-17T17:29:24.032Z,10.70
2022-10-17T17:31:51.783Z,10.70
2022-10-17T17:34:20.144Z,10.80
2022-10-17T17:36:48.322Z,10.70
2022-10-17T17:39:18.018Z,10.60
2022-10-17T17:41:46.210Z,10.50
2022-10-17T17:44:16.799Z,10.50
2022-10-17T17:46:46.385Z,10.50
2022-10-17T17:49:14.807Z,10.40
2022-10-17T17:51:46.854Z,10.30
2022-10-17T17:54:15.479Z,10.30
2022-10-17T17:56:43.336Z,10.20
2022-10-17T17:59:14.199Z,10.10
2022-10-17T18:01:44.503Z,10.10
2022-10-17T18:04:12.662Z,10.10
2022-10-17T18:06:41.191Z,10.10
2022-10-17T18:09:09.782Z,10.00
2022-10-17T18:11:38.723Z,9.90
2022-10-17T18:14:11.054Z,9.90
2022-10-17T18:16:39.114Z,9.80
2022-10-17T18:19:09.251Z,9.80
2022-10-17T18:21:38.193Z,9.80
2022-10-17T18:24:06.536Z,9.70
2022-10-17T18:26:35.399Z,9.70
2022-10-17T18:29:04.001Z,9.70
2022-10-17T18:31:36.289Z,9.70
2022-10-17T18:34:05.615Z,9.70
2022-10-17T18:36:35.145Z,9.60
2022-10-17T18:39:04.636Z,9.50
2022-10-17T18:41:32.540Z,9.50
2022-10-17T18:44:01.766Z,9.50
2022-10-17T18:46:42.998Z,9.40
2022-10-17T18:49:13.936Z,9.30
2022-10-17T18:51:42.826Z,9.30
2022-10-17T18:54:20.951Z,9.30
2022-10-17T18:56:55.017Z,9.30
2022-10-17T18:59:22.839Z,9.20
2022-10-17T19:01:50.746Z,9.20
2022-10-17T19:04:18.975Z,9.20
2022-10-17T19:06:46.900Z,9.10
2022-10-17T19:09:16.499Z,9.20
2022-10-17T19:11:44.613Z,9.10
2022-10-17T19:14:13.763Z,9.10
2022-10-17T19:16:45.483Z,9.00
2022-10-17T19:19:21.851Z,9.00
2022-10-17T19:21:51.175Z,8.90
2022-10-17T19:24:21.788Z,8.80
2022-10-17T19:26:51.288Z,8.80
2022-10-17T19:29:19.917Z,8.80
2022-10-17T19:31:49.061Z,8.70
2022-10-17T19:34:18.679Z,8.60
2022-10-17T19:36:49.719Z,8.60
2022-10-17T19:39:21.201Z,8.70
2022-10-17T19:41:48.986Z,8.60
2022-10-17T19:44:17.318Z,8.60
2022-10-17T19:46:47.130Z,8.50
2022-10-17T19:49:14.924Z,8.50
2022-10-17T19:51:43.117Z,8.40
2022-10-17T19:54:11.932Z,8.40
2022-10-17T19:56:40.945Z,8.40
2022-10-17T19:59:11.365Z,8.40
2022-10-17T20:01:40.289Z,8.40
2022-10-17T20:04:09.691Z,8.40
2022-10-17T20:06:39.664Z,8.40
2022-10-17T20:09:11.012Z,8.30
2022-10-17T20:11:42.014Z,8.30
2022-10-17T20:14:09.850Z,8.30
2022-10-17T20:16:40.416Z,8.30
2022-10-17T20:19:11.748Z,8.20
2022-10-17T20:21:40.105Z,8.30
2022-10-17T20:24:11.617Z,8.20
2022-10-17T20:26:41.052Z,8.10
2022-10-17T20:29:17.692Z,8.10
2022-10-17T20:31:47.377Z,8.10
2022-10-17T20:34:17.245Z,8.10
2022-10-17T20:36:45.244Z,8.10
2022-10-17T20:39:15.324Z,8.10
2022-10-17T20:41:44.137Z,8.10
2022-10-17T20:44:12.850Z,8.20
2022-10-17T20:46:48.813Z,8.10
2022-10-17T20:49:28.252Z,8.00
2022-10-17T20:51:56.301Z,7.90
2022-10-17T20:54:24.329Z,7.90
2022-10-17T20:56:52.356Z,7.90
2022-10-17T20:59:20.370Z,8.00
2022-10-17T21:01:48.534Z,8.00
2022-10-17T21:04:44.237Z,7.90
2022-10-17T21:07:04.414Z,7.90
2022-10-17T21:09:32.514Z,7.90
2022-10-17T21:14:34.201Z,7.80
2022-10-17T21:17:04.935Z,7.80
2022-10-17T21:19:33.467Z,7.70
2022-10-17T21:22:02.216Z,7.70
2022-10-17T21:24:30.620Z,7.70
2022-10-17T21:26:59.172Z,7.70
2022-10-17T21:29:26.978Z,7.70
2022-10-17T21:31:54.844Z,7.70
2022-10-17T21:34:26.722Z,7.70
2022-10-17T21:36:54.540Z,7.70
2022-10-17T21:39:24.972Z,7.70
2022-10-17T21:41:53.199Z,7.70
2022-10-17T21:44:23.861Z,7.80
2022-10-17T21:46:52.284Z,7.70
2022-10-17T21:49:22.703Z,7.60
2022-10-17T21:51:50.536Z,7.50
2022-10-17T21:54:19.732Z,7.60
2022-10-17T21:56:47.404Z,7.60
2022-10-17T21:59:15.417Z,7.60
2022-10-17T22:01:45.538Z,7.60
2022-10-17T22:04:19.607Z,7.70
2022-10-17T22:06:51.433Z,7.60
2022-10-17T22:09:22.890Z,7.50
2022-10-17T22:11:57.765Z,7.40
2022-10-17T22:14:27.205Z,7.40
2022-10-17T22:16:55.591Z,7.40
2022-10-17T22:19:25.870Z,7.30
2022-10-17T22:21:54.285Z,7.20
2022-10-17T22:24:22.681Z,7.20
2022-10-17T22:26:51.441Z,7.20
2022-10-17T22:29:19.203Z,7.10
2022-10-17T22:31:46.963Z,7.20
2022-10-17T22:34:16.247Z,7.20
2022-10-17T22:36:44.194Z,7.10
2022-10-17T22:39:12.408Z,7.10
2022-10-17T22:41:40.242Z,7.10
2022-10-17T22:44:08.110Z,7.10
2022-10-17T22:46:36.049Z,7.10
2022-10-17T22:49:04.419Z,7.10
2022-10-17T22:51:32.189Z,7.00
2022-10-17T22:54:00.725Z,7.00
2022-10-17T22:56:28.693Z,7.00
2022-10-17T22:58:56.555Z,7.00
2022-10-17T23:01:25.668Z,6.90
2022-10-17T23:03:53.538Z,6.90
2022-10-17T23:06:21.939Z,6.80
2022-10-17T23:08:50.288Z,6.90
2022-10-17T23:11:18.267Z,6.90
2022-10-17T23:13:45.971Z,6.90
2022-10-17T23:16:13.479Z,6.90
2022-10-17T23:18:41.250Z,6.80
2022-10-17T23:21:09.133Z,6.90
2022-10-17T23:23:37.299Z,6.80
2022-10-17T23:26:10.903Z,6.90
2022-10-17T23:28:39.497Z,6.80
2022-10-17T23:31:18.339Z,7.00
2022-10-17T23:33:47.990Z,6.90
2022-10-17T23:36:18.110Z,6.90
2022-10-17T23:38:46.974Z,6.90
2022-10-17T23:41:14.771Z,6.80
2022-10-17T23:43:43.444Z,6.80
2022-10-17T23:46:11.807Z,6.70
2022-10-17T23:48:40.156Z,6.70
2022-10-17T23:51:09.535Z,6.80
2022-10-17T23:53:38.447Z,6.80
2022-10-17T23:56:07.921Z,6.80
2022-10-17T23:58:35.953Z,6.80
